createdAt,value
2019-05-07T00:01:14.607Z,99.90
2019-05-07T00:03:46.266Z,99.90
2019-05-07T00:06:16.691Z,99.90
2019-05-07T00:08:47.115Z,99.90
2019-05-07T00:11:18.569Z,99.90
2019-05-07T00:13:48.997Z,99.90
2019-05-07T00:16:19.421Z,99.90
2019-05-07T00:18:49.850Z,99.90
2019-05-07T00:21:20.326Z,99.90
2019-05-07T00:23:52.682Z,99.90
2019-05-07T00:26:22.873Z,99.90
2019-05-07T00:28:53.288Z,99.90
2019-05-07T00:31:23.825Z,99.90
2019-05-07T00:33:54.260Z,99.90
2019-05-07T00:36:49.461Z,99.90
2019-05-07T00:39:42.411Z,99.90
2019-05-07T00:42:24.829Z,99.90
2019-05-07T00:45:16.909Z,99.90
2019-05-07T00:47:37.134Z,99.90
2019-05-07T00:50:13.824Z,99.90
2019-05-07T00:52:44.662Z,99.90
2019-05-07T00:55:15.250Z,99.90
2019-05-07T00:57:45.719Z,99.90
2019-05-07T01:00:17.577Z,99.90
2019-05-07T01:02:48.174Z,99.90
2019-05-07T01:05:18.621Z,99.90
2019-05-07T01:07:49.061Z,99.90
2019-05-07T01:10:19.684Z,99.90
2019-05-07T01:12:50.122Z,99.90
2019-05-07T01:15:28.786Z,99.90
2019-05-07T01:17:52.620Z,99.90
2019-05-07T01:20:24.069Z,99.90
2019-05-07T01:22:54.865Z,99.90
2019-05-07T01:25:25.479Z,99.90
2019-05-07T01:27:55.950Z,99.90
2019-05-07T01:30:26.386Z,99.90
2019-05-07T01:33:05.066Z,99.90
2019-05-07T01:35:53.353Z,99.90
2019-05-07T01:38:23.787Z,99.90
2019-05-07T01:40:54.207Z,99.90
2019-05-07T01:43:24.635Z,99.90
2019-05-07T01:45:55.063Z,99.90
2019-05-07T01:48:25.489Z,99.90
2019-05-07T01:50:56.089Z,99.90
2019-05-07T01:53:26.547Z,99.90
2019-05-07T01:55:57.027Z,99.90
2019-05-07T01:58:27.503Z,99.90
2019-05-07T02:00:58.954Z,99.90
2019-05-07T02:03:47.203Z,99.90
2019-05-07T02:06:23.463Z,99.90
2019-05-07T02:09:16.520Z,99.90
2019-05-07T02:11:47.898Z,99.90
2019-05-07T02:14:18.398Z,99.90
2019-05-07T02:16:48.827Z,99.90
2019-05-07T02:19:19.254Z,99.90
2019-05-07T02:21:49.685Z,99.90
2019-05-07T02:24:21.904Z,99.90
2019-05-07T02:26:53.854Z,99.90
2019-05-07T02:29:24.339Z,99.90
2019-05-07T02:31:54.768Z,99.90
2019-05-07T02:34:25.197Z,99.90
2019-05-07T02:36:55.830Z,99.90
2019-05-07T02:39:48.989Z,99.90
2019-05-07T02:42:19.411Z,99.90
2019-05-07T02:45:23.816Z,99.90
2019-05-07T02:47:53.245Z,99.90
2019-05-07T02:50:29.563Z,99.90
2019-05-07T02:53:19.289Z,99.90
2019-05-07T02:55:52.864Z,99.90
2019-05-07T02:58:24.146Z,99.90
2019-05-07T03:00:55.141Z,99.90
2019-05-07T03:03:25.608Z,99.90
2019-05-07T03:05:56.314Z,99.90
2019-05-07T03:08:27.648Z,99.90
2019-05-07T03:10:58.213Z,99.90
2019-05-07T03:13:28.639Z,99.90
2019-05-07T03:15:59.172Z,99.90
2019-05-07T03:18:32.733Z,99.90
2019-05-07T03:21:27.573Z,99.90
2019-05-07T03:24:22.505Z,99.90
2019-05-07T03:26:53.515Z,99.90
2019-05-07T03:29:25.238Z,99.90
2019-05-07T03:32:06.101Z,99.90
2019-05-07T03:35:07.596Z,99.90
2019-05-07T03:37:38.806Z,99.90
2019-05-07T03:40:10.293Z,99.90
2019-05-07T03:42:43.744Z,99.90
2019-05-07T03:45:19.238Z,99.90
2019-05-07T03:47:55.193Z,99.90
2019-05-07T03:50:26.644Z,99.90
2019-05-07T03:52:57.159Z,99.90
2019-05-07T03:55:27.648Z,99.90
2019-05-07T03:57:58.130Z,99.90
2019-05-07T04:00:33.038Z,99.90
2019-05-07T04:03:03.672Z,99.90
2019-05-07T04:05:34.737Z,99.90
2019-05-07T04:08:05.368Z,99.90
2019-05-07T04:10:35.804Z,99.90
2019-05-07T04:13:06.224Z,99.90
2019-05-07T04:15:36.653Z,99.90
2019-05-07T04:18:07.151Z,99.90
2019-05-07T04:20:37.608Z,99.90
2019-05-07T04:23:08.038Z,99.90
2019-05-07T04:26:04.343Z,99.90
2019-05-07T04:28:56.914Z,99.90
2019-05-07T04:31:29.745Z,99.90
2019-05-07T04:34:03.666Z,99.90
2019-05-07T04:36:37.788Z,99.90
2019-05-07T04:39:09.479Z,99.90
2019-05-07T04:41:39.903Z,99.90
2019-05-07T04:44:13.785Z,99.90
2019-05-07T04:46:47.122Z,99.90
2019-05-07T04:49:14.567Z,99.90
2019-05-07T04:51:53.347Z,99.90
2019-05-07T04:54:23.899Z,99.90
2019-05-07T04:56:54.348Z,99.90
2019-05-07T04:59:24.782Z,99.90
2019-05-07T05:02:04.163Z,99.90
2019-05-07T05:04:34.799Z,99.90
2019-05-07T05:07:05.777Z,99.90
2019-05-07T05:09:36.203Z,99.90
2019-05-07T05:12:06.648Z,99.90
2019-05-07T05:14:37.061Z,99.90
2019-05-07T05:17:07.486Z,99.90
2019-05-07T05:19:37.914Z,99.90
2019-05-07T05:22:33.223Z,99.90
2019-05-07T05:25:26.678Z,99.90
2019-05-07T05:27:57.218Z,99.90
2019-05-07T05:30:55.914Z,99.90
2019-05-07T05:33:26.422Z,99.90
2019-05-07T05:35:56.865Z,99.90
2019-05-07T05:38:27.293Z,99.90
2019-05-07T05:40:58.742Z,99.90
2019-05-07T05:43:54.259Z,99.90
2019-05-07T05:46:26.060Z,99.90
2019-05-07T05:48:56.552Z,99.90
2019-05-07T05:51:48.027Z,99.90
2019-05-07T05:54:33.460Z,99.90
2019-05-07T05:57:38.283Z,99.90
2019-05-07T06:00:28.880Z,99.90
2019-05-07T06:03:32.267Z,99.90
2019-05-07T06:06:12.787Z,99.90
2019-05-07T06:08:49.314Z,99.90
2019-05-07T06:11:38.581Z,99.90
2019-05-07T06:14:22.177Z,99.90
2019-05-07T06:17:02.089Z,99.90
2019-05-07T06:19:38.843Z,99.90
2019-05-07T06:22:32.982Z,99.90
2019-05-07T06:25:14.777Z,99.90
2019-05-07T06:27:43.918Z,99.90
2019-05-07T06:30:16.979Z,99.90
2019-05-07T06:32:47.432Z,99.90
2019-05-07T06:35:19.393Z,99.90
2019-05-07T06:37:52.027Z,99.90
2019-05-07T06:40:32.597Z,99.90
2019-05-07T06:43:09.572Z,99.90
2019-05-07T06:45:43.096Z,99.90
2019-05-07T06:48:13.728Z,99.90
2019-05-07T06:50:57.103Z,99.90
2019-05-07T06:53:29.577Z,99.90
2019-05-07T06:56:02.920Z,99.90
2019-05-07T06:58:47.478Z,99.90
2019-05-07T07:01:43.029Z,99.90
2019-05-07T07:04:23.795Z,99.90
2019-05-07T07:07:26.636Z,99.90
2019-05-07T07:10:07.146Z,99.90
2019-05-07T07:12:37.573Z,99.90
2019-05-07T07:15:09.024Z,99.90
2019-05-07T07:17:41.356Z,99.90
2019-05-07T07:20:12.682Z,99.90
2019-05-07T07:22:43.369Z,99.90
2019-05-07T07:25:14.724Z,99.90
2019-05-07T07:27:45.155Z,99.90
2019-05-07T07:30:48.452Z,99.90
2019-05-07T07:33:19.612Z,99.90
2019-05-07T07:35:51.960Z,98.80
2019-05-07T07:38:35.390Z,99.00
2019-05-07T07:41:45.351Z,98.00
2019-05-07T07:44:15.851Z,96.20
2019-05-07T07:46:46.311Z,92.20
2019-05-07T07:49:16.741Z,90.40
2019-05-07T07:51:47.162Z,85.50
2019-05-07T07:54:17.802Z,83.00
2019-05-07T07:56:56.489Z,81.00
2019-05-07T07:59:44.966Z,80.00
2019-05-07T08:02:34.336Z,77.50
2019-05-07T08:05:05.248Z,78.20
2019-05-07T08:07:35.803Z,78.30
2019-05-07T08:10:06.949Z,77.70
2019-05-07T08:12:37.374Z,77.90
2019-05-07T08:15:17.249Z,74.40
2019-05-07T08:17:41.926Z,74.70
2019-05-07T08:20:13.365Z,71.60
2019-05-07T08:22:43.794Z,74.00
2019-05-07T08:25:14.427Z,74.40
2019-05-07T08:27:44.852Z,74.80
2019-05-07T08:30:22.086Z,76.90
2019-05-07T08:33:02.250Z,76.80
2019-05-07T08:35:41.785Z,78.10
2019-05-07T08:38:12.756Z,76.60
2019-05-07T08:40:43.466Z,77.40
2019-05-07T08:43:13.933Z,77.50
2019-05-07T08:46:02.683Z,79.10
2019-05-07T08:48:38.649Z,80.60
2019-05-07T08:51:11.885Z,80.30
2019-05-07T08:53:42.354Z,79.80
2019-05-07T08:56:13.013Z,82.00
2019-05-07T08:58:43.736Z,81.10
2019-05-07T09:01:14.269Z,81.10
2019-05-07T09:03:44.694Z,83.40
2019-05-07T09:06:17.617Z,80.60
2019-05-07T09:08:48.105Z,79.50
2019-05-07T09:11:19.367Z,80.50
2019-05-07T09:13:49.778Z,79.40
2019-05-07T09:16:59.431Z,78.40
2019-05-07T09:19:32.054Z,79.80
2019-05-07T09:22:02.332Z,74.10
2019-05-07T09:24:33.537Z,73.60
2019-05-07T09:27:23.047Z,72.30
2019-05-07T09:30:15.182Z,68.20
2019-05-07T09:32:55.755Z,67.70
2019-05-07T09:35:32.061Z,65.90
2019-05-07T09:38:03.238Z,65.80
2019-05-07T09:40:33.792Z,66.40
2019-05-07T09:43:04.446Z,68.70
2019-05-07T09:45:34.864Z,71.60
2019-05-07T09:48:05.404Z,70.70
2019-05-07T09:50:35.907Z,69.40
2019-05-07T09:53:06.322Z,66.50
2019-05-07T09:55:36.943Z,65.30
2019-05-07T09:58:07.561Z,65.00
2019-05-07T10:00:39.045Z,65.40
2019-05-07T10:03:09.479Z,68.40
2019-05-07T10:05:42.696Z,69.40
2019-05-07T10:08:14.939Z,70.50
2019-05-07T10:10:50.217Z,71.20
2019-05-07T10:13:53.577Z,73.60
2019-05-07T10:16:31.639Z,74.50
2019-05-07T10:19:03.408Z,74.70
2019-05-07T10:21:33.865Z,77.00
2019-05-07T10:24:04.911Z,74.60
2019-05-07T10:26:35.715Z,75.70
2019-05-07T10:29:06.243Z,76.40
2019-05-07T10:31:36.978Z,76.50
2019-05-07T10:34:07.946Z,77.40
2019-05-07T10:36:38.380Z,77.70
2019-05-07T10:39:09.214Z,78.60
2019-05-07T10:41:42.457Z,77.60
2019-05-07T10:44:14.318Z,78.90
2019-05-07T10:47:02.614Z,79.70
2019-05-07T10:49:52.609Z,80.10
2019-05-07T10:52:23.432Z,79.80
2019-05-07T10:54:59.622Z,78.80
2019-05-07T10:57:26.172Z,79.70
2019-05-07T10:59:56.661Z,78.80
2019-05-07T11:02:32.298Z,75.70
2019-05-07T11:05:02.763Z,72.10
2019-05-07T11:07:33.284Z,67.50
2019-05-07T11:10:04.205Z,63.10
2019-05-07T11:12:34.657Z,60.70
2019-05-07T11:15:05.559Z,59.70
2019-05-07T11:17:57.910Z,60.30
2019-05-07T11:20:28.441Z,61.00
2019-05-07T11:22:58.867Z,60.50
2019-05-07T11:25:29.294Z,61.80
2019-05-07T11:27:59.710Z,61.40
2019-05-07T11:30:32.094Z,62.10
2019-05-07T11:33:02.890Z,63.20
2019-05-07T11:35:34.687Z,65.10
2019-05-07T11:38:17.706Z,66.10
2019-05-07T11:40:37.298Z,66.20
2019-05-07T11:43:33.006Z,66.60
2019-05-07T11:46:13.841Z,68.80
2019-05-07T11:48:55.567Z,72.60
2019-05-07T11:51:35.108Z,78.70
2019-05-07T11:54:12.325Z,81.70
2019-05-07T11:56:42.607Z,80.20
2019-05-07T11:59:13.630Z,80.80
2019-05-07T12:01:48.192Z,77.70
2019-05-07T12:04:18.812Z,77.70
2019-05-07T12:06:49.244Z,76.00
2019-05-07T12:09:21.656Z,75.40
2019-05-07T12:11:52.121Z,75.80
2019-05-07T12:14:30.975Z,76.90
2019-05-07T12:16:55.557Z,77.40
2019-05-07T12:19:25.980Z,76.50
2019-05-07T12:21:56.413Z,77.00
2019-05-07T12:24:26.843Z,74.60
2019-05-07T12:26:57.544Z,73.90
2019-05-07T12:29:28.261Z,72.70
2019-05-07T12:32:12.209Z,68.90
2019-05-07T12:34:46.155Z,68.40
2019-05-07T12:37:16.588Z,63.20
2019-05-07T12:39:49.175Z,61.60
2019-05-07T12:42:19.595Z,60.50
2019-05-07T12:44:51.733Z,62.10
2019-05-07T12:47:22.598Z,61.90
2019-05-07T12:49:53.122Z,60.60
2019-05-07T12:52:45.465Z,60.90
2019-05-07T12:55:35.039Z,62.50
2019-05-07T12:58:05.633Z,64.80
2019-05-07T13:00:52.010Z,65.50
2019-05-07T13:03:44.721Z,63.90
2019-05-07T13:06:15.253Z,65.50
2019-05-07T13:08:45.683Z,67.50
2019-05-07T13:11:17.127Z,68.50
2019-05-07T13:13:47.554Z,69.40
2019-05-07T13:16:17.990Z,71.10
2019-05-07T13:18:48.560Z,72.20
2019-05-07T13:21:19.041Z,73.60
2019-05-07T13:23:49.467Z,75.40
2019-05-07T13:26:20.098Z,76.60
2019-05-07T13:28:52.959Z,76.80
2019-05-07T13:31:23.307Z,75.10
2019-05-07T13:33:55.449Z,75.00
2019-05-07T13:36:25.993Z,74.30
2019-05-07T13:39:23.533Z,75.00
2019-05-07T13:42:03.726Z,76.10
2019-05-07T13:44:53.608Z,78.00
2019-05-07T13:47:30.283Z,79.60
2019-05-07T13:50:02.590Z,80.00
2019-05-07T13:52:33.494Z,78.30
2019-05-07T13:55:04.122Z,77.30
2019-05-07T13:57:34.651Z,76.00
2019-05-07T14:00:06.523Z,74.90
2019-05-07T14:02:36.944Z,75.50
2019-05-07T14:05:07.867Z,73.70
2019-05-07T14:07:41.657Z,71.70
2019-05-07T14:10:12.823Z,66.00
2019-05-07T14:12:43.527Z,60.30
2019-05-07T14:15:14.611Z,55.80
2019-05-07T14:17:45.029Z,55.00
2019-05-07T14:20:16.054Z,52.40
2019-05-07T14:22:46.486Z,55.00
2019-05-07T14:25:17.148Z,56.80
2019-05-07T14:27:47.570Z,57.00
2019-05-07T14:30:19.406Z,60.00
2019-05-07T14:32:57.120Z,60.00
2019-05-07T14:35:49.251Z,62.80
2019-05-07T14:38:26.955Z,63.80
2019-05-07T14:40:59.819Z,65.40
2019-05-07T14:43:49.819Z,67.10
2019-05-07T14:46:20.348Z,66.00
2019-05-07T14:48:52.106Z,67.70
2019-05-07T14:51:22.886Z,69.60
2019-05-07T14:53:53.534Z,68.10
2019-05-07T14:56:24.278Z,68.20
2019-05-07T14:58:54.909Z,66.70
2019-05-07T15:01:25.359Z,67.10
2019-05-07T15:03:56.102Z,65.70
2019-05-07T15:06:26.735Z,59.90
2019-05-07T15:08:57.290Z,58.80
2019-05-07T15:11:27.878Z,58.80
2019-05-07T15:13:58.322Z,58.50
2019-05-07T15:16:31.869Z,58.40
2019-05-07T15:19:02.246Z,59.80
2019-05-07T15:21:32.776Z,60.50
2019-05-07T15:24:03.543Z,60.40
2019-05-07T15:26:34.837Z,62.40
2019-05-07T15:29:11.853Z,64.10
2019-05-07T15:32:00.498Z,64.50
2019-05-07T15:34:32.725Z,65.10
2019-05-07T15:37:03.159Z,66.50
2019-05-07T15:39:33.898Z,67.60
2019-05-07T15:42:04.631Z,69.00
2019-05-07T15:44:35.090Z,72.20
2019-05-07T15:47:11.725Z,76.10
2019-05-07T15:49:42.394Z,77.60
2019-05-07T15:52:19.277Z,81.50
2019-05-07T15:54:49.700Z,83.20
2019-05-07T15:57:26.269Z,80.30
2019-05-07T16:00:06.366Z,78.10
2019-05-07T16:02:39.824Z,79.80
2019-05-07T16:05:12.259Z,84.00
2019-05-07T16:07:44.419Z,92.20
2019-05-07T16:10:15.301Z,93.50
2019-05-07T16:12:47.465Z,94.50
2019-05-07T16:15:18.008Z,98.70
2019-05-07T16:17:54.773Z,96.70
2019-05-07T16:20:25.198Z,98.30
2019-05-07T16:23:13.557Z,99.90
2019-05-07T16:25:32.827Z,99.90
2019-05-07T16:28:04.859Z,99.90
2019-05-07T16:30:35.626Z,99.90
2019-05-07T16:33:06.140Z,99.90
2019-05-07T16:35:36.569Z,99.90
2019-05-07T16:38:06.995Z,99.90
2019-05-07T16:40:37.423Z,99.90
2019-05-07T16:43:07.847Z,99.90
2019-05-07T16:45:38.275Z,99.90
2019-05-07T16:48:08.702Z,99.90
2019-05-07T16:50:40.154Z,99.90
2019-05-07T16:53:12.253Z,99.90
2019-05-07T16:55:43.104Z,99.90
2019-05-07T16:58:23.634Z,99.90
2019-05-07T17:01:00.108Z,99.90
2019-05-07T17:03:36.764Z,99.90
2019-05-07T17:06:07.190Z,99.90
2019-05-07T17:08:44.953Z,99.90
2019-05-07T17:13:45.046Z,99.90
2019-05-07T17:16:35.390Z,99.90
2019-05-07T17:19:06.426Z,99.90
2019-05-07T17:21:36.986Z,99.90
2019-05-07T17:24:07.795Z,99.90
2019-05-07T17:26:38.299Z,99.90
2019-05-07T17:29:08.781Z,99.90
2019-05-07T17:31:39.211Z,99.90
2019-05-07T17:34:11.730Z,99.90
2019-05-07T17:36:42.356Z,99.90
2019-05-07T17:39:12.850Z,99.90
2019-05-07T17:41:43.274Z,99.90
2019-05-07T17:44:13.822Z,99.90
2019-05-07T17:46:46.124Z,99.90
2019-05-07T17:49:16.295Z,99.90
2019-05-07T17:51:46.827Z,99.90
2019-05-07T17:54:18.582Z,99.90
2019-05-07T17:56:49.009Z,99.90
2019-05-07T17:59:19.487Z,99.90
2019-05-07T18:02:17.922Z,99.90
2019-05-07T18:04:54.014Z,99.90
2019-05-07T18:07:21.259Z,99.90
2019-05-07T18:09:51.769Z,99.90
2019-05-07T18:12:22.582Z,99.90
2019-05-07T18:14:53.237Z,99.90
2019-05-07T18:17:33.804Z,99.90
2019-05-07T18:20:24.468Z,99.90
2019-05-07T18:22:55.029Z,99.90
2019-05-07T18:25:25.454Z,99.90
2019-05-07T18:27:55.973Z,99.90
2019-05-07T18:30:26.676Z,99.90
2019-05-07T18:33:22.111Z,99.90
2019-05-07T18:35:52.768Z,99.90
2019-05-07T18:38:23.189Z,99.90
2019-05-07T18:40:53.619Z,99.90
2019-05-07T18:43:24.190Z,99.90
2019-05-07T18:45:54.675Z,99.90
2019-05-07T18:48:25.170Z,99.90
2019-05-07T18:50:55.639Z,99.90
2019-05-07T18:53:26.060Z,99.90
2019-05-07T18:55:56.484Z,99.90
2019-05-07T18:58:27.058Z,99.90
2019-05-07T19:01:02.520Z,99.90
2019-05-07T19:03:32.988Z,99.90
2019-05-07T19:06:03.518Z,99.90
2019-05-07T19:08:35.622Z,99.90
2019-05-07T19:11:06.323Z,99.90
2019-05-07T19:13:36.992Z,99.90
2019-05-07T19:16:07.871Z,99.90
2019-05-07T19:18:38.419Z,99.90
2019-05-07T19:21:09.869Z,99.90
2019-05-07T19:23:42.391Z,99.90
2019-05-07T19:26:13.239Z,99.90
2019-05-07T19:28:43.838Z,99.90
2019-05-07T19:31:14.346Z,99.90
2019-05-07T19:33:44.824Z,99.90
2019-05-07T19:36:15.502Z,99.90
2019-05-07T19:38:45.930Z,99.90
2019-05-07T19:41:17.381Z,99.90
2019-05-07T19:43:47.918Z,99.90
2019-05-07T19:46:18.351Z,99.90
2019-05-07T19:48:48.764Z,99.90
2019-05-07T19:51:19.192Z,99.90
2019-05-07T19:53:49.620Z,99.90
2019-05-07T19:56:25.533Z,99.90
2019-05-07T19:58:56.124Z,99.90
2019-05-07T20:01:45.680Z,99.90
2019-05-07T20:04:16.425Z,99.90
2019-05-07T20:06:46.945Z,99.90
2019-05-07T20:09:19.623Z,99.90
2019-05-07T20:11:52.314Z,99.90
2019-05-07T20:14:22.525Z,99.90
2019-05-07T20:16:54.189Z,99.90
2019-05-07T20:19:24.615Z,99.90
2019-05-07T20:21:55.037Z,99.90
2019-05-07T20:24:25.666Z,99.90
2019-05-07T20:26:56.186Z,99.90
2019-05-07T20:29:26.628Z,99.90
2019-05-07T20:31:57.050Z,99.90
2019-05-07T20:34:27.478Z,99.90
2019-05-07T20:36:58.301Z,99.90
2019-05-07T20:39:28.751Z,99.90
2019-05-07T20:42:02.862Z,99.90
2019-05-07T20:44:32.691Z,99.90
2019-05-07T20:47:03.114Z,99.90
2019-05-07T20:49:33.732Z,99.90
2019-05-07T20:52:04.185Z,99.90
2019-05-07T20:54:49.938Z,99.90
2019-05-07T20:57:26.531Z,99.90
2019-05-07T20:59:57.147Z,99.90
2019-05-07T21:02:41.776Z,99.90
2019-05-07T21:04:59.974Z,99.90
2019-05-07T21:07:32.804Z,99.90
2019-05-07T21:10:03.465Z,99.90
2019-05-07T21:12:34.547Z,99.90
2019-05-07T21:15:05.293Z,99.90
2019-05-07T21:17:36.574Z,99.90
2019-05-07T21:20:08.550Z,99.90
2019-05-07T21:22:39.049Z,99.90
2019-05-07T21:25:11.877Z,99.90
2019-05-07T21:27:43.095Z,99.90
2019-05-07T21:30:13.915Z,99.90
2019-05-07T21:32:44.675Z,99.90
2019-05-07T21:35:15.149Z,99.90
2019-05-07T21:37:45.744Z,99.90
2019-05-07T21:40:16.342Z,99.90
2019-05-07T21:42:46.882Z,99.90
2019-05-07T21:45:17.423Z,99.90
2019-05-07T21:47:48.056Z,99.90
2019-05-07T21:50:18.602Z,99.90
2019-05-07T21:52:54.098Z,99.90
2019-05-07T21:55:59.963Z,99.90
2019-05-07T21:58:29.494Z,99.90
2019-05-07T22:01:09.951Z,99.90
2019-05-07T22:03:53.081Z,99.90
2019-05-07T22:06:23.551Z,99.90
2019-05-07T22:08:54.853Z,99.90
2019-05-07T22:11:25.540Z,99.90
2019-05-07T22:13:56.186Z,99.90
2019-05-07T22:16:26.650Z,99.90
2019-05-07T22:18:57.079Z,99.90
2019-05-07T22:21:28.528Z,99.90
2019-05-07T22:23:58.956Z,99.90
2019-05-07T22:26:32.011Z,99.90
2019-05-07T22:29:03.211Z,99.90
2019-05-07T22:32:08.125Z,99.90
2019-05-07T22:34:52.073Z,99.90
2019-05-07T22:37:22.596Z,99.90
2019-05-07T22:39:53.148Z,99.90
2019-05-07T22:42:23.708Z,99.90
2019-05-07T22:44:54.186Z,99.90
2019-05-07T22:47:24.862Z,99.90
2019-05-07T22:49:55.726Z,99.90
2019-05-07T22:52:28.811Z,99.90
2019-05-07T22:54:59.273Z,99.90
2019-05-07T22:57:48.646Z,99.90
2019-05-07T23:00:42.688Z,99.90
2019-05-07T23:03:13.663Z,99.90
2019-05-07T23:05:44.901Z,99.90
2019-05-07T23:08:15.548Z,99.90
2019-05-07T23:10:46.117Z,99.90
2019-05-07T23:13:16.646Z,99.90
2019-05-07T23:15:47.119Z,99.90
2019-05-07T23:18:17.560Z,99.90
2019-05-07T23:20:49.013Z,99.90
2019-05-07T23:23:21.331Z,99.90
2019-05-07T23:25:52.387Z,99.90
2019-05-07T23:28:23.081Z,99.90
2019-05-07T23:30:53.786Z,99.90
2019-05-07T23:33:24.215Z,99.90
2019-05-07T23:35:54.641Z,99.90
2019-05-07T23:38:25.058Z,99.90
2019-05-07T23:41:12.704Z,99.90
2019-05-07T23:43:44.959Z,99.90
2019-05-07T23:46:15.399Z,99.90
2019-05-07T23:48:45.813Z,99.90
2019-05-07T23:51:16.238Z,99.90
2019-05-07T23:53:46.679Z,99.90
2019-05-07T23:56:17.105Z,99.90
2019-05-07T23:58:47.535Z,99.90
